sensor_id;sensor_type;location;lat;lon;timestamp;pressure;altitude;pressure_sealevel;temperature;humidity
45793;BME280;31495;42.740;22.908;2023-08-24T00:00:31;93295.34;;;21.63;60.34
45793;BME280;31495;42.740;22.908;2023-08-24T00:01:32;93302.41;;;21.73;60.08
45793;BME280;31495;42.740;22.908;2023-08-24T00:02:31;93302.44;;;21.68;60.23
45793;BME280;31495;42.740;22.908;2023-08-24T00:03:31;93280.63;;;21.62;60.26
45793;BME280;31495;42.740;22.908;2023-08-24T00:04:30;93291.63;;;21.70;60.21
45793;BME280;31495;42.740;22.908;2023-08-24T00:05:33;93285.34;;;21.65;60.60
45793;BME280;31495;42.740;22.908;2023-08-24T00:06:33;93301.31;;;21.79;59.99
45793;BME280;31495;42.740;22.908;2023-08-24T00:07:33;93290.28;;;21.72;59.92
45793;BME280;31495;42.740;22.908;2023-08-24T00:08:32;93293.72;;;21.67;60.29
45793;BME280;31495;42.740;22.908;2023-08-24T00:09:31;93277.19;;;21.62;60.29
45793;BME280;31495;42.740;22.908;2023-08-24T00:10:31;93266.75;;;21.46;60.47
45793;BME280;31495;42.740;22.908;2023-08-24T00:11:31;93254.16;;;21.43;60.49
45793;BME280;31495;42.740;22.908;2023-08-24T00:12:33;93284.59;;;21.60;60.47
45793;BME280;31495;42.740;22.908;2023-08-24T00:13:33;93288.31;;;21.54;60.81
45793;BME280;31495;42.740;22.908;2023-08-24T00:14:33;93271.00;;;21.42;60.85
45793;BME280;31495;42.740;22.908;2023-08-24T00:15:32;93282.00;;;21.50;60.93
45793;BME280;31495;42.740;22.908;2023-08-24T00:16:32;93278.91;;;21.37;61.15
45793;BME280;31495;42.740;22.908;2023-08-24T00:17:31;93286.81;;;21.37;61.27
45793;BME280;31495;42.740;22.908;2023-08-24T00:18:31;93275.50;;;21.32;61.15
45793;BME280;31495;42.740;22.908;2023-08-24T00:19:32;93270.28;;;21.26;61.04
45793;BME280;31495;42.740;22.908;2023-08-24T00:20:32;93283.91;;;21.39;61.25
45793;BME280;31495;42.740;22.908;2023-08-24T00:21:34;93287.81;;;21.41;60.89
45793;BME280;31495;42.740;22.908;2023-08-24T00:22:34;93262.66;;;21.30;61.23
45793;BME280;31495;42.740;22.908;2023-08-24T00:23:33;93284.16;;;21.42;61.25
45793;BME280;31495;42.740;22.908;2023-08-24T00:24:32;93281.50;;;21.42;60.83
45793;BME280;31495;42.740;22.908;2023-08-24T00:25:32;93279.69;;;21.48;60.72
45793;BME280;31495;42.740;22.908;2023-08-24T00:26:31;93258.16;;;21.30;60.61
45793;BME280;31495;42.740;22.908;2023-08-24T00:27:31;93278.34;;;21.51;60.55
45793;BME280;31495;42.740;22.908;2023-08-24T00:28:30;93280.47;;;21.48;60.59
45793;BME280;31495;42.740;22.908;2023-08-24T00:29:29;93275.19;;;21.48;60.43
45793;BME280;31495;42.740;22.908;2023-08-24T00:30:29;93255.31;;;21.27;61.02
45793;BME280;31495;42.740;22.908;2023-08-24T00:31:29;93279.69;;;21.38;60.55
45793;BME280;31495;42.740;22.908;2023-08-24T00:32:28;93265.03;;;21.26;60.88
45793;BME280;31495;42.740;22.908;2023-08-24T00:33:28;93270.56;;;21.30;61.12
45793;BME280;31495;42.740;22.908;2023-08-24T00:34:27;93275.78;;;21.35;60.81
45793;BME280;31495;42.740;22.908;2023-08-24T00:35:26;93250.06;;;21.22;60.88
45793;BME280;31495;42.740;22.908;2023-08-24T00:36:26;93249.81;;;21.18;61.15
45793;BME280;31495;42.740;22.908;2023-08-24T00:37:25;93276.56;;;21.36;61.02
45793;BME280;31495;42.740;22.908;2023-08-24T00:38:25;93238.31;;;21.09;60.90
45793;BME280;31495;42.740;22.908;2023-08-24T00:39:24;93259.75;;;21.26;61.28
45793;BME280;31495;42.740;22.908;2023-08-24T00:40:24;93267.13;;;21.29;60.86
45793;BME280;31495;42.740;22.908;2023-08-24T00:41:24;93274.44;;;21.38;60.71
45793;BME280;31495;42.740;22.908;2023-08-24T00:42:24;93273.16;;;21.35;60.75
45793;BME280;31495;42.740;22.908;2023-08-24T00:43:25;93247.16;;;21.23;60.99
45793;BME280;31495;42.740;22.908;2023-08-24T00:44:25;93247.97;;;21.24;60.75
45793;BME280;31495;42.740;22.908;2023-08-24T00:45:25;93273.84;;;21.46;60.55
45793;BME280;31495;42.740;22.908;2023-08-24T00:46:25;93265.53;;;21.34;60.55
45793;BME280;31495;42.740;22.908;2023-08-24T00:47:26;93274.66;;;21.41;60.65
45793;BME280;31495;42.740;22.908;2023-08-24T00:48:26;93235.59;;;21.19;60.55
45793;BME280;31495;42.740;22.908;2023-08-24T00:49:28;93269.94;;;21.43;60.47
45793;BME280;31495;42.740;22.908;2023-08-24T00:50:27;93275.19;;;21.43;60.37
45793;BME280;31495;42.740;22.908;2023-08-24T00:51:27;93271.53;;;21.39;60.90
45793;BME280;31495;42.740;22.908;2023-08-24T00:52:29;93272.56;;;21.43;60.57
45793;BME280;31495;42.740;22.908;2023-08-24T00:53:31;93272.56;;;21.43;60.82
45793;BME280;31495;42.740;22.908;2023-08-24T00:54:31;93249.78;;;21.28;60.87
45793;BME280;31495;42.740;22.908;2023-08-24T00:55:30;93271.53;;;21.39;61.11
45793;BME280;31495;42.740;22.908;2023-08-24T00:56:30;93264.97;;;21.37;61.14
45793;BME280;31495;42.740;22.908;2023-08-24T00:57:30;93244.50;;;21.28;60.68
45793;BME280;31495;42.740;22.908;2023-08-24T00:58:32;93262.28;;;21.47;60.46
45793;BME280;31495;42.740;22.908;2023-08-24T00:59:33;93269.66;;;21.45;60.47
45793;BME280;31495;42.740;22.908;2023-08-24T01:00:33;93255.97;;;21.43;60.47
45793;BME280;31495;42.740;22.908;2023-08-24T01:01:33;93263.16;;;21.32;61.00
45793;BME280;31495;42.740;22.908;2023-08-24T01:02:33;93263.66;;;21.34;61.07
45793;BME280;31495;42.740;22.908;2023-08-24T01:03:33;93255.84;;;21.24;61.38
45793;BME280;31495;42.740;22.908;2023-08-24T01:04:32;93271.81;;;21.38;60.94
45793;BME280;31495;42.740;22.908;2023-08-24T01:05:32;93269.22;;;21.33;61.23
45793;BME280;31495;42.740;22.908;2023-08-24T01:06:31;93257.66;;;21.23;61.50
45793;BME280;31495;42.740;22.908;2023-08-24T01:07:38;93252.19;;;21.20;61.42
45793;BME280;31495;42.740;22.908;2023-08-24T01:08:39;93271.06;;;21.32;61.35
45793;BME280;31495;42.740;22.908;2023-08-24T01:09:39;93232.25;;;21.14;61.47
45793;BME280;31495;42.740;22.908;2023-08-24T01:10:47;93261.53;;;21.36;61.39
45793;BME280;31495;42.740;22.908;2023-08-24T01:13:07;93256.00;;;21.38;61.27
45793;BME280;31495;42.740;22.908;2023-08-24T01:15:20;93248.94;;;21.33;61.62
45793;BME280;31495;42.740;22.908;2023-08-24T01:16:28;93260.78;;;21.36;61.89
45793;BME280;31495;42.740;22.908;2023-08-24T01:17:29;93262.09;;;21.33;61.61
45793;BME280;31495;42.740;22.908;2023-08-24T01:18:30;93223.56;;;21.08;61.32
45793;BME280;31495;42.740;22.908;2023-08-24T01:19:46;93238.72;;;21.26;61.20
45793;BME280;31495;42.740;22.908;2023-08-24T01:20:47;93246.38;;;21.23;60.73
45793;BME280;31495;42.740;22.908;2023-08-24T01:21:48;93251.16;;;21.16;60.79
45793;BME280;31495;42.740;22.908;2023-08-24T01:23:09;93263.78;;;21.19;61.32
45793;BME280;31495;42.740;22.908;2023-08-24T01:24:29;93267.78;;;21.06;61.78
45793;BME280;31495;42.740;22.908;2023-08-24T01:26:35;93228.81;;;20.63;62.31
45793;BME280;31495;42.740;22.908;2023-08-24T01:27:36;93269.72;;;20.85;62.79
45793;BME280;31495;42.740;22.908;2023-08-24T01:28:36;93262.38;;;20.82;62.39
45793;BME280;31495;42.740;22.908;2023-08-24T01:29:37;93265.00;;;20.82;62.45
45793;BME280;31495;42.740;22.908;2023-08-24T01:30:39;93261.09;;;20.79;62.92
45793;BME280;31495;42.740;22.908;2023-08-24T01:31:39;93263.19;;;20.72;63.11
45793;BME280;31495;42.740;22.908;2023-08-24T01:32:39;93254.28;;;20.73;63.10
45793;BME280;31495;42.740;22.908;2023-08-24T01:33:39;93240.88;;;20.64;62.87
45793;BME280;31495;42.740;22.908;2023-08-24T01:34:39;93243.78;;;20.68;62.60
45793;BME280;31495;42.740;22.908;2023-08-24T01:35:39;93272.88;;;20.82;62.44
45793;BME280;31495;42.740;22.908;2023-08-24T01:36:39;93268.97;;;20.79;62.61
45793;BME280;31495;42.740;22.908;2023-08-24T01:37:38;93272.38;;;20.80;63.07
45793;BME280;31495;42.740;22.908;2023-08-24T01:38:39;93267.94;;;20.75;62.65
45793;BME280;31495;42.740;22.908;2023-08-24T01:39:45;93255.81;;;20.74;62.69
45793;BME280;31495;42.740;22.908;2023-08-24T01:42:08;93275.31;;;20.73;63.03
45793;BME280;31495;42.740;22.908;2023-08-24T01:43:10;93270.00;;;20.78;62.55
45793;BME280;31495;42.740;22.908;2023-08-24T01:44:14;93272.91;;;20.77;63.03
45793;BME280;31495;42.740;22.908;2023-08-24T01:45:16;93258.22;;;20.60;63.26
45793;BME280;31495;42.740;22.908;2023-08-24T01:46:19;93250.13;;;20.51;63.20
45793;BME280;31495;42.740;22.908;2023-08-24T01:47:21;93267.69;;;20.61;62.92
45793;BME280;31495;42.740;22.908;2023-08-24T01:48:21;93282.66;;;20.71;62.93
45793;BME280;31495;42.740;22.908;2023-08-24T01:49:22;93244.88;;;20.51;62.55
45793;BME280;31495;42.740;22.908;2023-08-24T01:50:23;93272.13;;;20.71;62.51
45793;BME280;31495;42.740;22.908;2023-08-24T01:51:24;93272.41;;;20.74;62.30
45793;BME280;31495;42.740;22.908;2023-08-24T01:52:24;93266.91;;;20.66;62.68
45793;BME280;31495;42.740;22.908;2023-08-24T01:53:25;93273.97;;;20.70;62.48
45793;BME280;31495;42.740;22.908;2023-08-24T01:54:25;93256.13;;;20.57;62.69
45793;BME280;31495;42.740;22.908;2023-08-24T01:55:25;93272.41;;;20.74;62.55
45793;BME280;31495;42.740;22.908;2023-08-24T01:56:25;93259.00;;;20.61;62.49
45793;BME280;31495;42.740;22.908;2023-08-24T01:57:24;93282.38;;;20.78;62.13
45793;BME280;31495;42.740;22.908;2023-08-24T01:58:24;93260.31;;;20.68;61.94
45793;BME280;31495;42.740;22.908;2023-08-24T01:59:23;93260.31;;;20.73;62.04
45793;BME280;31495;42.740;22.908;2023-08-24T02:00:23;93268.97;;;20.79;62.33
45793;BME280;31495;42.740;22.908;2023-08-24T02:01:22;93280.28;;;20.80;62.20
45793;BME280;31495;42.740;22.908;2023-08-24T02:02:21;93272.66;;;20.73;62.53
45793;BME280;31495;42.740;22.908;2023-08-24T02:03:21;93271.88;;;20.78;62.47
45793;BME280;31495;42.740;22.908;2023-08-24T02:04:20;93277.66;;;20.74;62.57
45793;BME280;31495;42.740;22.908;2023-08-24T02:05:19;93253.50;;;20.57;62.71
45793;BME280;31495;42.740;22.908;2023-08-24T02:06:19;93281.81;;;20.81;62.44
45793;BME280;31495;42.740;22.908;2023-08-24T02:07:18;93267.16;;;20.74;62.55
45793;BME280;31495;42.740;22.908;2023-08-24T02:08:18;93253.75;;;20.61;62.42
45793;BME280;31495;42.740;22.908;2023-08-24T02:09:18;93266.63;;;20.62;62.91
45793;BME280;31495;42.740;22.908;2023-08-24T02:10:17;93262.97;;;20.63;63.05
45793;BME280;31495;42.740;22.908;2023-08-24T02:11:16;93272.94;;;20.71;62.70
45793;BME280;31495;42.740;22.908;2023-08-24T02:12:16;93257.19;;;20.61;63.10
45793;BME280;31495;42.740;22.908;2023-08-24T02:13:15;93270.06;;;20.68;62.83
45793;BME280;31495;42.740;22.908;2023-08-24T02:14:15;93269.25;;;20.67;62.79
45793;BME280;31495;42.740;22.908;2023-08-24T02:15:14;93258.78;;;20.52;63.20
45793;BME280;31495;42.740;22.908;2023-08-24T02:16:14;93248.03;;;20.48;63.40
45793;BME280;31495;42.740;22.908;2023-08-24T02:17:13;93251.41;;;20.54;63.11
45793;BME280;31495;42.740;22.908;2023-08-24T02:18:13;93269.25;;;20.62;63.11
45793;BME280;31495;42.740;22.908;2023-08-24T02:19:13;93259.03;;;20.55;63.37
45793;BME280;31495;42.740;22.908;2023-08-24T02:20:13;93263.75;;;20.64;63.39
45793;BME280;31495;42.740;22.908;2023-08-24T02:21:12;93242.53;;;20.45;63.41
45793;BME280;31495;42.740;22.908;2023-08-24T02:22:13;93239.09;;;20.44;63.17
45793;BME280;31495;42.740;22.908;2023-08-24T02:23:12;93258.50;;;20.59;63.17
45793;BME280;31495;42.740;22.908;2023-08-24T02:24:12;93270.31;;;20.61;63.06
45793;BME280;31495;42.740;22.908;2023-08-24T02:25:11;93251.44;;;20.44;63.63
45793;BME280;31495;42.740;22.908;2023-08-24T02:26:10;93261.19;;;20.43;63.52
45793;BME280;31495;42.740;22.908;2023-08-24T02:27:10;93266.94;;;20.45;63.52
45793;BME280;31495;42.740;22.908;2023-08-24T02:28:09;93277.97;;;20.52;63.93
45793;BME280;31495;42.740;22.908;2023-08-24T02:29:09;93271.66;;;20.53;63.87
45793;BME280;31495;42.740;22.908;2023-08-24T02:30:09;93271.13;;;20.46;63.72
45793;BME280;31495;42.740;22.908;2023-08-24T02:31:08;93279.81;;;20.52;63.84
45793;BME280;31495;42.740;22.908;2023-08-24T02:32:08;93265.88;;;20.51;63.71
45793;BME280;31495;42.740;22.908;2023-08-24T02:33:07;93250.13;;;20.51;63.08
45793;BME280;31495;42.740;22.908;2023-08-24T02:34:06;93269.81;;;20.54;63.47
45793;BME280;31495;42.740;22.908;2023-08-24T02:35:07;93272.97;;;20.51;63.25
45793;BME280;31495;42.740;22.908;2023-08-24T02:36:06;93254.63;;;20.35;63.49
45793;BME280;31495;42.740;22.908;2023-08-24T02:37:06;93228.41;;;20.05;63.95
45793;BME280;31495;42.740;22.908;2023-08-24T02:38:06;93253.09;;;20.04;64.61
45793;BME280;31495;42.740;22.908;2023-08-24T02:39:05;93275.19;;;20.02;64.91
45793;BME280;31495;42.740;22.908;2023-08-24T02:40:06;93226.34;;;19.65;65.38
45793;BME280;31495;42.740;22.908;2023-08-24T02:41:07;93265.47;;;19.88;65.69
45793;BME280;31495;42.740;22.908;2023-08-24T02:42:06;93272.03;;;19.80;66.02
45793;BME280;31495;42.740;22.908;2023-08-24T02:43:06;93272.31;;;19.78;66.16
45793;BME280;31495;42.740;22.908;2023-08-24T02:44:05;93269.16;;;19.76;66.70
45793;BME280;31495;42.740;22.908;2023-08-24T02:45:05;93274.16;;;19.78;66.41
45793;BME280;31495;42.740;22.908;2023-08-24T02:46:08;93253.91;;;19.68;66.63
45793;BME280;31495;42.740;22.908;2023-08-24T02:47:09;93265.19;;;19.79;66.33
45793;BME280;31495;42.740;22.908;2023-08-24T02:48:08;93240.50;;;19.59;66.30
45793;BME280;31495;42.740;22.908;2023-08-24T02:49:08;93232.91;;;19.58;66.16
45793;BME280;31495;42.740;22.908;2023-08-24T02:50:09;93266.75;;;19.75;66.02
45793;BME280;31495;42.740;22.908;2023-08-24T02:51:08;93277.81;;;19.82;66.29
45793;BME280;31495;42.740;22.908;2023-08-24T02:52:08;93279.38;;;19.88;65.77
45793;BME280;31495;42.740;22.908;2023-08-24T02:53:07;93246.28;;;19.72;65.67
45793;BME280;31495;42.740;22.908;2023-08-24T02:54:07;93276.25;;;19.91;65.96
45793;BME280;31495;42.740;22.908;2023-08-24T02:55:07;93253.91;;;19.73;65.85
45793;BME280;31495;42.740;22.908;2023-08-24T02:56:07;93283.88;;;19.88;66.22
45793;BME280;31495;42.740;22.908;2023-08-24T02:57:06;93249.16;;;19.70;66.01
45793;BME280;31495;42.740;22.908;2023-08-24T02:58:05;93279.63;;;19.92;65.80
45793;BME280;31495;42.740;22.908;2023-08-24T02:59:05;93277.81;;;19.92;65.74
45793;BME280;31495;42.740;22.908;2023-08-24T03:00:05;93263.91;;;19.76;65.82
45793;BME280;31495;42.740;22.908;2023-08-24T03:01:07;93277.00;;;19.97;65.33
45793;BME280;31495;42.740;22.908;2023-08-24T03:02:06;93256.28;;;19.85;65.11
45793;BME280;31495;42.740;22.908;2023-08-24T03:03:06;93243.13;;;19.75;65.55
45793;BME280;31495;42.740;22.908;2023-08-24T03:04:05;93279.63;;;19.97;65.35
45793;BME280;31495;42.740;22.908;2023-08-24T03:05:05;93259.16;;;19.83;65.42
45793;BME280;31495;42.740;22.908;2023-08-24T03:06:06;93282.53;;;19.95;65.52
45793;BME280;31495;42.740;22.908;2023-08-24T03:07:06;93266.78;;;19.85;65.69
45793;BME280;31495;42.740;22.908;2023-08-24T03:08:07;93281.50;;;19.91;65.44
45793;BME280;31495;42.740;22.908;2023-08-24T03:09:06;93258.13;;;19.79;65.52
45793;BME280;31495;42.740;22.908;2023-08-24T03:10:06;93269.16;;;19.81;65.61
45793;BME280;31495;42.740;22.908;2023-08-24T03:11:06;93249.44;;;19.74;65.62
45793;BME280;31495;42.740;22.908;2023-08-24T03:12:05;93287.50;;;20.02;65.68
45793;BME280;31495;42.740;22.908;2023-08-24T03:13:05;93292.22;;;20.05;65.55
45793;BME280;31495;42.740;22.908;2023-08-24T03:14:05;93287.00;;;20.10;65.42
45793;BME280;31495;42.740;22.908;2023-08-24T03:15:05;93284.34;;;20.05;65.51
45793;BME280;31495;42.740;22.908;2023-08-24T03:16:06;93288.81;;;20.10;65.38
45793;BME280;31495;42.740;22.908;2023-08-24T03:17:06;93265.22;;;19.94;65.45
45793;BME280;31495;42.740;22.908;2023-08-24T03:18:06;93274.38;;;19.97;65.63
45793;BME280;31495;42.740;22.908;2023-08-24T03:19:06;93287.25;;;20.14;65.37
45793;BME280;31495;42.740;22.908;2023-08-24T03:20:07;93292.78;;;20.12;65.04
45793;BME280;31495;42.740;22.908;2023-08-24T03:21:07;93289.06;;;20.13;65.11
45793;BME280;31495;42.740;22.908;2023-08-24T03:22:06;93264.44;;;19.99;64.83
45793;BME280;31495;42.740;22.908;2023-08-24T03:23:06;93294.59;;;20.12;65.12
45793;BME280;31495;42.740;22.908;2023-08-24T03:24:06;93279.38;;;19.98;65.42
45793;BME280;31495;42.740;22.908;2023-08-24T03:25:06;93262.34;;;19.91;65.38
45793;BME280;31495;42.740;22.908;2023-08-24T03:26:05;93291.44;;;20.10;65.41
45793;BME280;31495;42.740;22.908;2023-08-24T03:27:05;93294.06;;;20.10;65.24
45793;BME280;31495;42.740;22.908;2023-08-24T03:28:05;93267.31;;;19.92;65.19
45793;BME280;31495;42.740;22.908;2023-08-24T03:29:05;93278.06;;;19.96;65.02
45793;BME280;31495;42.740;22.908;2023-08-24T03:30:05;93294.06;;;20.10;64.86
45793;BME280;31495;42.740;22.908;2023-08-24T03:31:06;93295.13;;;20.14;64.52
45793;BME280;31495;42.740;22.908;2023-08-24T03:32:06;93299.56;;;20.13;64.69
45793;BME280;31495;42.740;22.908;2023-08-24T03:33:05;93287.78;;;20.11;64.51
45793;BME280;31495;42.740;22.908;2023-08-24T03:34:05;93293.56;;;20.08;65.05
45793;BME280;31495;42.740;22.908;2023-08-24T03:35:05;93297.22;;;20.01;65.35
45793;BME280;31495;42.740;22.908;2023-08-24T03:36:04;93299.84;;;20.01;65.14
45793;BME280;31495;42.740;22.908;2023-08-24T03:37:04;93277.81;;;19.87;65.17
45793;BME280;31495;42.740;22.908;2023-08-24T03:38:03;93302.22;;;19.98;65.45
45793;BME280;31495;42.740;22.908;2023-08-24T03:39:03;93299.34;;;19.94;65.44
45793;BME280;31495;42.740;22.908;2023-08-24T03:40:03;93288.56;;;19.86;65.62
45793;BME280;31495;42.740;22.908;2023-08-24T03:41:03;93290.94;;;19.97;65.48
45793;BME280;31495;42.740;22.908;2023-08-24T03:42:03;93284.13;;;19.86;65.28
45793;BME280;31495;42.740;22.908;2023-08-24T03:43:03;93295.13;;;19.93;65.19
45793;BME280;31495;42.740;22.908;2023-08-24T03:44:02;93303.00;;;19.88;65.36
45793;BME280;31495;42.740;22.908;2023-08-24T03:45:02;93297.78;;;19.78;65.68
45793;BME280;31495;42.740;22.908;2023-08-24T03:46:02;93302.50;;;19.81;65.48
45793;BME280;31495;42.740;22.908;2023-08-24T03:47:03;93302.50;;;19.81;65.86
45793;BME280;31495;42.740;22.908;2023-08-24T03:48:03;93302.50;;;19.86;65.91
45793;BME280;31495;42.740;22.908;2023-08-24T03:49:02;93306.41;;;19.94;65.47
45793;BME280;31495;42.740;22.908;2023-08-24T03:50:02;93282.25;;;19.71;65.23
45793;BME280;31495;42.740;22.908;2023-08-24T03:51:02;93308.53;;;19.76;65.69
45793;BME280;31495;42.740;22.908;2023-08-24T03:52:01;93274.63;;;19.54;65.81
45793;BME280;31495;42.740;22.908;2023-08-24T03:53:03;93270.44;;;19.53;65.70
45793;BME280;31495;42.740;22.908;2023-08-24T03:54:02;93308.53;;;19.76;66.14
45793;BME280;31495;42.740;22.908;2023-08-24T03:55:02;93305.91;;;19.76;65.98
45793;BME280;31495;42.740;22.908;2023-08-24T03:56:02;93289.31;;;19.60;65.77
45793;BME280;31495;42.740;22.908;2023-08-24T03:57:01;93311.38;;;19.75;66.18
45793;BME280;31495;42.740;22.908;2023-08-24T03:58:01;93320.31;;;19.74;66.04
45793;BME280;31495;42.740;22.908;2023-08-24T03:59:01;93320.06;;;19.75;65.84
45793;BME280;31495;42.740;22.908;2023-08-24T04:00:01;93317.97;;;19.77;65.68
45793;BME280;31495;42.740;22.908;2023-08-24T04:01:03;93319.25;;;19.75;65.49
45793;BME280;31495;42.740;22.908;2023-08-24T04:02:03;93317.19;;;19.77;65.80
45793;BME280;31495;42.740;22.908;2023-08-24T04:03:02;93312.94;;;19.71;65.95
45793;BME280;31495;42.740;22.908;2023-08-24T04:04:02;93317.97;;;19.77;65.61
45793;BME280;31495;42.740;22.908;2023-08-24T04:05:01;93310.63;;;19.74;65.71
45793;BME280;31495;42.740;22.908;2023-08-24T04:06:01;93318.50;;;19.85;65.71
45793;BME280;31495;42.740;22.908;2023-08-24T04:07:00;93283.03;;;19.61;65.87
45793;BME280;31495;42.740;22.908;2023-08-24T04:08:01;93298.28;;;19.70;66.20
45793;BME280;31495;42.740;22.908;2023-08-24T04:09:01;93311.38;;;19.75;66.16
45793;BME280;31495;42.740;22.908;2023-08-24T04:10:01;93315.88;;;19.85;66.17
45793;BME280;31495;42.740;22.908;2023-08-24T04:11:00;93318.50;;;19.85;65.90
45793;BME280;31495;42.740;22.908;2023-08-24T04:11:59;93281.97;;;19.57;65.94
45793;BME280;31495;42.740;22.908;2023-08-24T04:12:59;93319.56;;;19.78;66.22
45793;BME280;31495;42.740;22.908;2023-08-24T04:13:58;93295.66;;;19.64;66.17
45793;BME280;31495;42.740;22.908;2023-08-24T04:14:58;93316.94;;;19.78;66.15
45793;BME280;31495;42.740;22.908;2023-08-24T04:15:57;93305.59;;;19.68;66.25
45793;BME280;31495;42.740;22.908;2023-08-24T04:16:57;93319.53;;;19.73;66.47
45793;BME280;31495;42.740;22.908;2023-08-24T04:17:57;93319.25;;;19.75;66.32
45793;BME280;31495;42.740;22.908;2023-08-24T04:18:57;93318.47;;;19.69;66.66
45793;BME280;31495;42.740;22.908;2023-08-24T04:19:56;93300.09;;;19.59;66.81
45793;BME280;31495;42.740;22.908;2023-08-24T04:20:56;93320.81;;;19.71;66.63
45793;BME280;31495;42.740;22.908;2023-08-24T04:21:55;93318.19;;;19.71;66.81
45793;BME280;31495;42.740;22.908;2023-08-24T04:22:55;93315.31;;;19.62;67.04
45793;BME280;31495;42.740;22.908;2023-08-24T04:23:55;93317.16;;;19.67;67.00
45793;BME280;31495;42.740;22.908;2023-08-24T04:24:55;93281.44;;;19.45;67.33
45793;BME280;31495;42.740;22.908;2023-08-24T04:25:54;93294.56;;;19.45;67.19
45793;BME280;31495;42.740;22.908;2023-08-24T04:26:54;93287.75;;;19.44;67.45
45793;BME280;31495;42.740;22.908;2023-08-24T04:27:53;93315.56;;;19.60;67.75
45793;BME280;31495;42.740;22.908;2023-08-24T04:28:52;93288.81;;;19.48;67.60
45793;BME280;31495;42.740;22.908;2023-08-24T04:29:52;93280.38;;;19.46;67.13
45793;BME280;31495;42.740;22.908;2023-08-24T04:30:53;93310.84;;;19.62;67.10
45793;BME280;31495;42.740;22.908;2023-08-24T04:31:52;93316.38;;;19.71;67.55
45793;BME280;31495;42.740;22.908;2023-08-24T04:32:52;93295.63;;;19.59;67.33
45793;BME280;31495;42.740;22.908;2023-08-24T04:33:52;93313.22;;;19.69;67.05
45793;BME280;31495;42.740;22.908;2023-08-24T04:34:51;93311.13;;;19.71;66.98
45793;BME280;31495;42.740;22.908;2023-08-24T04:35:50;93313.25;;;19.74;67.17
45793;BME280;31495;42.740;22.908;2023-08-24T04:36:50;93279.34;;;19.52;66.79
45793;BME280;31495;42.740;22.908;2023-08-24T04:37:49;93315.34;;;19.77;66.97
45793;BME280;31495;42.740;22.908;2023-08-24T04:38:49;93313.78;;;19.76;67.17
45793;BME280;31495;42.740;22.908;2023-08-24T04:39:48;93288.28;;;19.67;66.87
45793;BME280;31495;42.740;22.908;2023-08-24T04:40:53;93315.09;;;19.89;66.60
45793;BME280;31495;42.740;22.908;2023-08-24T04:41:53;93314.03;;;19.90;66.72
45793;BME280;31495;42.740;22.908;2023-08-24T04:42:52;93293.56;;;19.82;66.75
45793;BME280;31495;42.740;22.908;2023-08-24T04:43:52;93313.25;;;20.00;66.77
45793;BME280;31495;42.740;22.908;2023-08-24T04:44:51;93299.34;;;19.89;66.80
45793;BME280;31495;42.740;22.908;2023-08-24T04:45:53;93323.75;;;20.00;66.72
45793;BME280;31495;42.740;22.908;2023-08-24T04:46:52;93319.56;;;20.04;66.48
45793;BME280;31495;42.740;22.908;2023-08-24T04:47:52;93295.66;;;19.85;66.67
45793;BME280;31495;42.740;22.908;2023-08-24T04:48:51;93285.69;;;19.87;66.36
45793;BME280;31495;42.740;22.908;2023-08-24T04:49:50;93311.41;;;20.06;66.48
45793;BME280;31495;42.740;22.908;2023-08-24T04:50:50;93329.78;;;20.16;66.14
45793;BME280;31495;42.740;22.908;2023-08-24T04:51:50;93327.16;;;20.21;66.11
45793;BME280;31495;42.740;22.908;2023-08-24T04:52:49;93322.97;;;20.25;66.04
45793;BME280;31495;42.740;22.908;2023-08-24T04:53:49;93302.75;;;20.15;65.69
45793;BME280;31495;42.740;22.908;2023-08-24T04:54:48;93318.75;;;20.29;65.32
45793;BME280;31495;42.740;22.908;2023-08-24T04:55:48;93328.44;;;20.39;65.34
45793;BME280;31495;42.740;22.908;2023-08-24T04:56:47;93326.06;;;20.43;65.18
45793;BME280;31495;42.740;22.908;2023-08-24T04:57:47;93320.56;;;20.39;65.03
45793;BME280;31495;42.740;22.908;2023-08-24T04:58:56;93312.94;;;20.37;64.96
45793;BME280;31495;42.740;22.908;2023-08-24T04:59:56;93330.00;;;20.50;65.06
45793;BME280;31495;42.740;22.908;2023-08-24T05:00:55;93311.09;;;20.38;64.87
45793;BME280;31495;42.740;22.908;2023-08-24T05:01:55;93316.09;;;20.45;65.10
45793;BME280;31495;42.740;22.908;2023-08-24T05:02:54;93305.59;;;20.45;64.87
45793;BME280;31495;42.740;22.908;2023-08-24T05:03:53;93315.81;;;20.56;64.78
45793;BME280;31495;42.740;22.908;2023-08-24T05:04:53;93328.16;;;20.66;64.84
45793;BME280;31495;42.740;22.908;2023-08-24T05:05:52;93329.72;;;20.67;64.96
45793;BME280;31495;42.740;22.908;2023-08-24T05:06:52;93330.78;;;20.71;64.99
45793;BME280;31495;42.740;22.908;2023-08-24T05:07:53;93285.84;;;20.47;64.70
45793;BME280;31495;42.740;22.908;2023-08-24T05:08:54;93297.16;;;20.63;64.47
45793;BME280;31495;42.740;22.908;2023-08-24T05:09:54;93332.31;;;20.88;64.36
45793;BME280;31495;42.740;22.908;2023-08-24T05:10:54;93323.91;;;20.81;64.27
45793;BME280;31495;42.740;22.908;2023-08-24T05:11:54;93314.47;;;20.74;64.81
45793;BME280;31495;42.740;22.908;2023-08-24T05:12:53;93324.94;;;20.90;64.88
45793;BME280;31495;42.740;22.908;2023-08-24T05:13:52;93298.16;;;20.78;64.78
45793;BME280;31495;42.740;22.908;2023-08-24T05:14:53;93335.94;;;21.02;64.62
45793;BME280;31495;42.740;22.908;2023-08-24T05:15:52;93330.13;;;21.00;64.39
45793;BME280;31495;42.740;22.908;2023-08-24T05:16:52;93329.59;;;21.03;63.97
45793;BME280;31495;42.740;22.908;2023-08-24T05:17:52;93337.75;;;21.02;64.65
45793;BME280;31495;42.740;22.908;2023-08-24T05:18:54;93335.94;;;21.02;64.63
45793;BME280;31495;42.740;22.908;2023-08-24T05:19:54;93331.47;;;20.98;64.63